Terminal Aerodrome Forecast
Issued by NWS

Home | Current Version | Previous Version | Text Only | Print | Product List | Glossary Off
Versions: 1 2 3 4 5 6 7 8 9 10 11 12

000
FTUS42 KMHX 181139
TAFISO
TAF
KISO 181139Z 1812/1912 23005KT P6SM SKC
     FM181700 23009G16KT P6SM BKN250
     FM190200 22006KT P6SM BKN100
     FM190900 26004KT P6SM SCT070
      AMD LTD TO CLD VIS AND WIND=

USA.gov is the U.S. government's official web portal to all federal, state and local government web resources and services.